createdAt,value
2022-10-21T00:01:32.259Z,101004.03
2022-10-21T00:04:03.337Z,100993.75
2022-10-21T00:06:31.578Z,101016.03
2022-10-21T00:08:58.658Z,100994.22
2022-10-21T00:11:25.342Z,100936.63
2022-10-21T00:13:51.996Z,100947.03
2022-10-21T00:16:19.453Z,100992.56
2022-10-21T00:18:50.571Z,100961.84
2022-10-21T00:21:21.024Z,100988.38
2022-10-21T00:23:49.456Z,100912.69
2022-10-21T00:26:18.667Z,100992.38
2022-10-21T00:28:45.679Z,100955.59
2022-10-21T00:31:16.973Z,100933.22
2022-10-21T00:33:43.627Z,101002.78
2022-10-21T00:36:11.649Z,101003.59
2022-10-21T00:38:38.270Z,100997.06
2022-10-21T00:41:06.510Z,100989.69
2022-10-21T00:43:48.195Z,100996.13
2022-10-21T00:46:14.848Z,100968.13
2022-10-21T00:48:48.091Z,100954.31
2022-10-21T00:51:19.610Z,100952.56
2022-10-21T00:53:49.129Z,101005.97
2022-10-21T00:56:18.221Z,100998.94
2022-10-21T00:58:49.016Z,100977.72
2022-10-21T01:01:19.191Z,100969.38
2022-10-21T01:03:49.119Z,100951.22
2022-10-21T01:06:16.888Z,100971.00
2022-10-21T01:08:43.757Z,100959.31
2022-10-21T01:11:14.482Z,100923.94
2022-10-21T01:13:53.634Z,100928.66
2022-10-21T01:16:25.052Z,100951.41
2022-10-21T01:19:01.204Z,100892.13
2022-10-21T01:21:38.584Z,100869.25
2022-10-21T01:24:44.410Z,100950.28
2022-10-21T01:27:25.286Z,100872.09
2022-10-21T01:30:14.218Z,100933.22
2022-10-21T01:33:16.834Z,100922.19
2022-10-21T01:35:49.112Z,100883.78
2022-10-21T01:38:24.279Z,100827.22
2022-10-21T01:40:57.307Z,100933.91
2022-10-21T01:43:33.730Z,100906.72
2022-10-21T01:46:04.298Z,100914.59
2022-10-21T01:48:37.162Z,100850.38
2022-10-21T01:51:07.666Z,100877.81
2022-10-21T01:53:44.716Z,100905.97
2022-10-21T01:56:13.409Z,100864.28
2022-10-21T01:58:42.960Z,100871.09
2022-10-21T02:01:11.221Z,100921.25
2022-10-21T02:03:46.056Z,100875.69
2022-10-21T02:06:12.796Z,100890.50
2022-10-21T02:08:39.823Z,100916.09
2022-10-21T02:11:08.993Z,100916.78
2022-10-21T02:13:41.612Z,100923.59
2022-10-21T02:16:11.069Z,100902.88
2022-10-21T02:18:39.346Z,100869.38
2022-10-21T02:21:10.256Z,100906.81
2022-10-21T02:23:42.209Z,100868.03
2022-10-21T02:26:09.097Z,100893.97
2022-10-21T02:28:36.168Z,100890.84
2022-10-21T02:31:18.662Z,100893.91
2022-10-21T02:33:55.678Z,100856.22
2022-10-21T02:36:35.571Z,100898.72
2022-10-21T02:39:09.225Z,100886.72
2022-10-21T02:41:38.357Z,100855.09
2022-10-21T02:44:05.691Z,100888.03
2022-10-21T02:46:38.261Z,100849.00
2022-10-21T02:49:06.337Z,100832.28
2022-10-21T02:51:34.564Z,100895.66
2022-10-21T02:54:01.273Z,100904.34
2022-10-21T02:56:31.106Z,100895.97
2022-10-21T02:58:57.890Z,100882.00
2022-10-21T03:01:24.749Z,100842.53
2022-10-21T03:03:51.625Z,100839.03
2022-10-21T03:06:19.684Z,100889.09
2022-10-21T03:08:46.472Z,100863.59
2022-10-21T03:11:13.199Z,100836.72
2022-10-21T03:13:40.039Z,100834.50
2022-10-21T03:16:07.688Z,100879.19
2022-10-21T03:18:34.384Z,100869.25
2022-10-21T03:21:01.072Z,100871.56
2022-10-21T03:23:29.175Z,100840.06
2022-10-21T03:25:55.805Z,100856.44
2022-10-21T03:28:22.531Z,100853.28
2022-10-21T03:30:49.179Z,100881.69
2022-10-21T03:33:15.811Z,100855.97
2022-10-21T03:35:42.434Z,100792.00
2022-10-21T03:38:09.132Z,100846.84
2022-10-21T03:40:37.222Z,100884.13
2022-10-21T03:43:03.891Z,100885.41
2022-10-21T03:45:30.765Z,100841.72
2022-10-21T03:47:57.361Z,100868.59
2022-10-21T03:50:26.525Z,100887.88
2022-10-21T03:52:54.351Z,100838.63
2022-10-21T03:55:21.290Z,100854.25
2022-10-21T03:57:49.651Z,100826.06
2022-10-21T04:00:17.094Z,100859.53
2022-10-21T04:02:43.870Z,100881.03
2022-10-21T04:05:11.079Z,100824.03
2022-10-21T04:07:39.540Z,100822.97
2022-10-21T04:10:08.085Z,100814.69
2022-10-21T04:12:37.506Z,100850.47
2022-10-21T04:15:06.122Z,100870.94
2022-10-21T04:17:32.831Z,100870.53
2022-10-21T04:19:59.463Z,100803.69
2022-10-21T04:22:26.177Z,100849.03
2022-10-21T04:24:52.849Z,100847.88
2022-10-21T04:27:19.540Z,100806.78
2022-10-21T04:29:46.185Z,100805.63
2022-10-21T04:32:14.347Z,100821.69
2022-10-21T04:34:41.000Z,100813.38
2022-10-21T04:37:10.342Z,100839.84
2022-10-21T04:39:37.247Z,100797.03
2022-10-21T04:42:03.993Z,100835.69
2022-10-21T04:44:30.740Z,100835.88
2022-10-21T04:46:57.358Z,100834.38
2022-10-21T04:49:25.333Z,100793.78
2022-10-21T04:51:52.117Z,100798.66
2022-10-21T04:54:18.800Z,100805.16
2022-10-21T04:56:45.485Z,100790.81
2022-10-21T04:59:12.103Z,100824.25
2022-10-21T05:01:38.753Z,100833.59
2022-10-21T05:04:05.606Z,100823.22
2022-10-21T05:06:33.677Z,100829.69
2022-10-21T05:09:00.365Z,100803.88
2022-10-21T05:11:27.388Z,100783.09
2022-10-21T05:13:54.022Z,100820.28
2022-10-21T05:16:20.653Z,100824.38
2022-10-21T05:18:47.339Z,100779.00
2022-10-21T05:21:14.052Z,100801.06
2022-10-21T05:23:42.120Z,100794.16
2022-10-21T05:26:08.788Z,100795.66
2022-10-21T05:28:36.033Z,100806.03
2022-10-21T05:31:02.964Z,100821.00
2022-10-21T05:33:29.628Z,100773.53
2022-10-21T05:35:57.532Z,100822.72
2022-10-21T05:38:24.263Z,100808.94
2022-10-21T05:40:52.337Z,100793.84
2022-10-21T05:43:19.006Z,100824.50
2022-10-21T05:45:45.711Z,100831.66
2022-10-21T05:48:17.684Z,100789.16
2022-10-21T05:50:44.945Z,100813.00
2022-10-21T05:53:11.562Z,100824.72
2022-10-21T05:55:38.184Z,100821.63
2022-10-21T05:58:06.266Z,100816.03
2022-10-21T06:00:33.263Z,100791.47
2022-10-21T06:02:59.879Z,100835.38
2022-10-21T06:05:26.739Z,100827.31
2022-10-21T06:07:53.448Z,100834.22
2022-10-21T06:10:20.092Z,100824.09
2022-10-21T06:12:46.718Z,100840.47
2022-10-21T06:15:14.762Z,100793.78
2022-10-21T06:17:41.505Z,100824.69
2022-10-21T06:20:09.028Z,100855.50
2022-10-21T06:22:35.669Z,100845.09
2022-10-21T06:25:02.283Z,100814.47
2022-10-21T06:27:28.986Z,100830.50
2022-10-21T06:29:55.617Z,100801.41
2022-10-21T06:32:23.623Z,100809.72
2022-10-21T06:34:50.308Z,100809.88
2022-10-21T06:37:17.040Z,100810.22
2022-10-21T06:39:43.650Z,100851.81
2022-10-21T06:42:10.290Z,100831.97
2022-10-21T06:44:36.944Z,100782.38
2022-10-21T06:47:03.545Z,100835.59
2022-10-21T06:49:31.737Z,100803.47
2022-10-21T06:51:58.380Z,100830.31
2022-10-21T06:54:25.125Z,100805.50
2022-10-21T06:56:52.063Z,100819.34
2022-10-21T06:59:18.673Z,100834.50
2022-10-21T07:01:59.578Z,100794.28
2022-10-21T07:04:27.310Z,100817.66
2022-10-21T07:06:55.569Z,100816.09
2022-10-21T07:09:22.344Z,100813.06
2022-10-21T07:11:49.045Z,100779.28
2022-10-21T07:14:15.656Z,100832.06
2022-10-21T07:16:42.691Z,100824.63
2022-10-21T07:19:19.865Z,100827.69
2022-10-21T07:21:56.344Z,100811.00
2022-10-21T07:24:24.546Z,100787.34
2022-10-21T07:26:51.654Z,100779.72
2022-10-21T07:29:19.038Z,100804.66
2022-10-21T07:31:46.003Z,100792.13
2022-10-21T07:34:15.689Z,100798.38
2022-10-21T07:36:50.371Z,100822.69
2022-10-21T07:39:19.282Z,100836.38
2022-10-21T07:41:50.969Z,100823.66
2022-10-21T07:44:19.334Z,100787.53
2022-10-21T07:46:50.106Z,100777.66
2022-10-21T07:49:22.474Z,100788.06
2022-10-21T07:51:50.759Z,100765.31
2022-10-21T07:54:23.811Z,100736.00
2022-10-21T07:56:52.431Z,100769.25
2022-10-21T07:59:29.176Z,100813.56
2022-10-21T08:02:00.939Z,100797.38
2022-10-21T08:04:35.265Z,100756.88
2022-10-21T08:07:04.447Z,100806.38
2022-10-21T08:09:31.213Z,100786.69
2022-10-21T08:11:59.722Z,100766.72
2022-10-21T08:14:26.516Z,100811.59
2022-10-21T08:16:56.815Z,100811.03
2022-10-21T08:19:29.267Z,100734.88
2022-10-21T08:21:57.168Z,100753.63
2022-10-21T08:24:24.364Z,100753.47
2022-10-21T08:26:54.650Z,100724.25
2022-10-21T08:29:27.668Z,100807.25
2022-10-21T08:31:59.037Z,100767.88
2022-10-21T08:34:26.081Z,100742.66
2022-10-21T08:37:05.355Z,100730.63
2022-10-21T08:39:32.117Z,100789.31
2022-10-21T08:42:07.787Z,100763.03
2022-10-21T08:44:43.033Z,100738.38
2022-10-21T08:47:21.462Z,100755.59
2022-10-21T08:50:20.481Z,100759.47
2022-10-21T08:52:57.913Z,100681.53
2022-10-21T08:55:32.947Z,100712.53
2022-10-21T08:58:02.066Z,100696.47
2022-10-21T09:00:34.168Z,100681.94
2022-10-21T09:03:18.391Z,100754.97
2022-10-21T09:06:09.306Z,100710.06
2022-10-21T09:08:52.534Z,100700.09
2022-10-21T09:11:34.695Z,100732.22
2022-10-21T09:14:32.983Z,100741.72
2022-10-21T09:17:12.208Z,100726.53
2022-10-21T09:19:58.646Z,100718.78
2022-10-21T09:23:02.240Z,100724.50
2022-10-21T09:25:42.745Z,100718.50
2022-10-21T09:28:12.896Z,100734.75
2022-10-21T09:30:40.679Z,100713.59
2022-10-21T09:33:16.035Z,100696.56
2022-10-21T09:35:46.876Z,100672.06
2022-10-21T09:38:17.958Z,100716.22
2022-10-21T09:40:49.325Z,100690.84
2022-10-21T09:43:25.053Z,100690.94
2022-10-21T09:45:52.048Z,100710.59
2022-10-21T09:48:29.244Z,100694.38
2022-10-21T09:51:00.975Z,100703.19
2022-10-21T09:53:33.058Z,100678.16
2022-10-21T09:56:03.404Z,100690.25
2022-10-21T09:58:45.290Z,100681.41
2022-10-21T10:01:16.618Z,100675.19
2022-10-21T10:03:46.915Z,100704.00
2022-10-21T10:06:32.068Z,100701.78
2022-10-21T10:09:07.762Z,100659.81
2022-10-21T10:11:34.456Z,100663.56
2022-10-21T10:14:23.140Z,100693.16
2022-10-21T10:16:50.025Z,100697.44
2022-10-21T10:19:19.781Z,100674.84
2022-10-21T10:22:10.071Z,100701.84
2022-10-21T10:24:37.699Z,100663.38
2022-10-21T10:27:05.372Z,100676.69
2022-10-21T10:29:33.011Z,100678.00
2022-10-21T10:32:02.117Z,100684.69
2022-10-21T10:34:34.344Z,100683.84
2022-10-21T10:37:04.981Z,100682.66
2022-10-21T10:39:34.635Z,100685.06
2022-10-21T10:42:02.696Z,100679.97
2022-10-21T10:44:33.870Z,100673.81
2022-10-21T10:47:02.731Z,100631.31
2022-10-21T10:49:38.252Z,100656.31
2022-10-21T10:52:14.259Z,100632.66
2022-10-21T10:54:42.287Z,100647.22
2022-10-21T10:57:15.672Z,100608.75
2022-10-21T10:59:44.356Z,100624.84
2022-10-21T11:02:34.649Z,100644.09
2022-10-21T11:05:15.308Z,100642.22
2022-10-21T11:07:46.213Z,100612.19
2022-10-21T11:10:33.147Z,100639.06
2022-10-21T11:13:04.334Z,100639.75
2022-10-21T11:15:43.622Z,100638.53
2022-10-21T11:18:24.955Z,100627.22
2022-10-21T11:21:05.542Z,100621.31
2022-10-21T11:23:54.263Z,100599.56
2022-10-21T11:26:33.616Z,100593.47
2022-10-21T11:29:16.935Z,100583.91
2022-10-21T11:32:10.759Z,100552.88
2022-10-21T11:34:53.273Z,100598.34
2022-10-21T11:37:33.080Z,100576.84
2022-10-21T11:40:07.706Z,100585.44
2022-10-21T11:42:41.530Z,100572.75
2022-10-21T11:45:33.269Z,100581.06
2022-10-21T11:48:14.123Z,100571.72
2022-10-21T11:50:49.729Z,100576.53
2022-10-21T11:53:31.866Z,100554.41
2022-10-21T11:56:10.191Z,100547.72
2022-10-21T11:58:48.302Z,100541.63
2022-10-21T12:01:25.894Z,100524.22
2022-10-21T12:04:22.290Z,100548.56
2022-10-21T12:07:07.676Z,100520.34
2022-10-21T12:09:43.836Z,100529.47
2022-10-21T12:12:13.957Z,100559.63
2022-10-21T12:14:43.711Z,100543.09
2022-10-21T12:17:15.817Z,100529.25
2022-10-21T12:19:48.710Z,100537.69
2022-10-21T12:22:15.669Z,100558.66
2022-10-21T12:24:52.673Z,100536.53
2022-10-21T12:27:26.930Z,100551.44
2022-10-21T12:30:05.280Z,100509.69
2022-10-21T12:32:40.552Z,100526.50
2022-10-21T12:35:12.805Z,100516.91
2022-10-21T12:37:58.159Z,100540.69
2022-10-21T12:40:37.453Z,100570.88
2022-10-21T12:43:06.000Z,100556.84
2022-10-21T12:45:35.119Z,100550.84
2022-10-21T12:48:07.905Z,100520.91
2022-10-21T12:50:35.059Z,100508.50
2022-10-21T12:53:14.672Z,100541.53
2022-10-21T12:55:50.271Z,100538.22
2022-10-21T12:58:30.587Z,100528.00
2022-10-21T13:00:58.865Z,100542.75
2022-10-21T13:03:49.507Z,100553.63
2022-10-21T13:06:16.424Z,100530.75
2022-10-21T13:08:53.267Z,100524.44
2022-10-21T13:11:23.976Z,100540.13
2022-10-21T13:14:24.166Z,100516.78
2022-10-21T13:16:50.884Z,100528.13
2022-10-21T13:19:33.867Z,100547.13
2022-10-21T13:22:13.386Z,100516.22
2022-10-21T13:24:41.953Z,100505.22
2022-10-21T13:27:26.692Z,100512.38
2022-10-21T13:30:00.467Z,100509.00
2022-10-21T13:32:32.512Z,100517.44
2022-10-21T13:35:22.377Z,100498.94
2022-10-21T13:37:55.989Z,100502.69
2022-10-21T13:40:28.995Z,100504.72
2022-10-21T13:43:01.264Z,100498.75
2022-10-21T13:45:30.776Z,100506.97
2022-10-21T13:48:03.000Z,100511.16
2022-10-21T13:50:32.811Z,100515.66
2022-10-21T13:53:05.312Z,100508.22
2022-10-21T13:55:31.937Z,100472.81
2022-10-21T13:58:00.050Z,100525.38
2022-10-21T14:00:29.593Z,100512.97
2022-10-21T14:03:01.491Z,100518.69
2022-10-21T14:05:34.863Z,100522.66
2022-10-21T14:08:02.521Z,100516.38
2022-10-21T14:10:30.098Z,100491.31
2022-10-21T14:15:37.690Z,100517.75
2022-10-21T14:18:05.054Z,100527.34
2022-10-21T14:20:34.619Z,100498.69
2022-10-21T14:23:04.085Z,100538.38
2022-10-21T14:25:31.523Z,100513.81
2022-10-21T14:28:00.388Z,100522.66
2022-10-21T14:30:28.674Z,100521.25
2022-10-21T14:33:04.520Z,100508.63
2022-10-21T14:35:31.907Z,100494.09
2022-10-21T14:38:00.643Z,100497.34
2022-10-21T14:40:29.681Z,100525.00
2022-10-21T14:42:56.526Z,100509.97
2022-10-21T14:45:26.632Z,100507.13
2022-10-21T14:47:58.842Z,100507.25
2022-10-21T14:50:25.552Z,100482.31
2022-10-21T14:52:53.352Z,100514.47
2022-10-21T14:55:25.266Z,100494.75
2022-10-21T14:57:53.644Z,100476.09
2022-10-21T15:00:28.919Z,100514.63
2022-10-21T15:02:59.713Z,100531.88
2022-10-21T15:05:34.105Z,100530.28
2022-10-21T15:08:27.655Z,100502.56
2022-10-21T15:11:15.501Z,100538.72
2022-10-21T15:13:55.659Z,100504.44
2022-10-21T15:16:25.820Z,100523.94
2022-10-21T15:18:54.442Z,100494.59
2022-10-21T15:21:28.734Z,100558.66
2022-10-21T15:23:57.648Z,100550.75
2022-10-21T15:26:26.764Z,100550.50
2022-10-21T15:28:54.619Z,100549.38
2022-10-21T15:31:24.039Z,100563.16
2022-10-21T15:33:51.210Z,100563.28
2022-10-21T15:36:19.777Z,100560.16
2022-10-21T15:38:47.667Z,100509.94
2022-10-21T15:41:17.122Z,100569.22
2022-10-21T15:43:44.335Z,100564.63
2022-10-21T15:46:11.159Z,100547.41
2022-10-21T15:48:37.864Z,100542.41
2022-10-21T15:51:04.604Z,100542.66
2022-10-21T15:53:32.634Z,100516.03
2022-10-21T15:56:00.809Z,100530.56
2022-10-21T15:58:27.481Z,100563.88
2022-10-21T16:00:54.223Z,100539.66
2022-10-21T16:03:20.811Z,100558.03
2022-10-21T16:05:47.626Z,100551.03
2022-10-21T16:08:14.260Z,100521.88
2022-10-21T16:10:42.641Z,100545.88
2022-10-21T16:13:09.341Z,100531.00
2022-10-21T16:15:35.983Z,100516.59
2022-10-21T16:18:02.611Z,100502.69
2022-10-21T16:20:31.269Z,100514.22
2022-10-21T16:23:01.975Z,100520.56
2022-10-21T16:25:29.847Z,100529.88
2022-10-21T16:27:57.981Z,100458.72
2022-10-21T16:30:27.086Z,100509.34
2022-10-21T16:32:54.103Z,100532.97
2022-10-21T16:35:21.246Z,100521.53
2022-10-21T16:37:48.778Z,100530.00
2022-10-21T16:40:18.947Z,100537.81
2022-10-21T16:42:45.637Z,100540.66
2022-10-21T16:45:14.655Z,100526.50
2022-10-21T16:47:42.679Z,100513.47
2022-10-21T16:50:18.549Z,100516.94
2022-10-21T16:52:45.201Z,100519.84
2022-10-21T16:55:12.362Z,100528.50
2022-10-21T16:57:39.340Z,100530.25
2022-10-21T17:00:07.099Z,100551.63
2022-10-21T17:02:40.146Z,100546.31
2022-10-21T17:05:08.089Z,100530.91
2022-10-21T17:07:34.783Z,100511.50
2022-10-21T17:10:01.655Z,100534.72
2022-10-21T17:12:28.707Z,100522.41
2022-10-21T17:14:55.332Z,100528.22
2022-10-21T17:17:21.948Z,100514.50
2022-10-21T17:19:50.047Z,100497.88
2022-10-21T17:22:16.936Z,100517.72
2022-10-21T17:24:44.058Z,100519.84
2022-10-21T17:27:11.979Z,100475.56
2022-10-21T17:29:40.149Z,100518.69
2022-10-21T17:32:06.971Z,100525.25
2022-10-21T17:34:35.670Z,100502.06
2022-10-21T17:37:03.740Z,100525.78
2022-10-21T17:39:30.380Z,100520.81
2022-10-21T17:41:57.097Z,100505.03
2022-10-21T17:44:23.843Z,100532.88
2022-10-21T17:46:50.863Z,100501.19
2022-10-21T17:49:17.714Z,100479.84
2022-10-21T17:51:44.338Z,100493.25
2022-10-21T17:54:12.403Z,100512.47
2022-10-21T17:56:39.096Z,100498.44
2022-10-21T17:59:05.762Z,100510.38
2022-10-21T18:01:32.530Z,100525.13
2022-10-21T18:03:59.281Z,100522.16
2022-10-21T18:06:26.570Z,100524.47
2022-10-21T18:08:53.311Z,100531.81
2022-10-21T18:11:21.493Z,100530.66
2022-10-21T18:13:53.430Z,100529.19
2022-10-21T18:16:23.281Z,100534.28
2022-10-21T18:18:50.593Z,100502.31
2022-10-21T18:21:20.510Z,100544.75
2022-10-21T18:23:49.033Z,100542.63
2022-10-21T18:26:17.759Z,100524.88
2022-10-21T18:28:48.858Z,100531.19
2022-10-21T18:31:15.817Z,100528.03
2022-10-21T18:33:42.512Z,100542.44
2022-10-21T18:36:10.630Z,100561.16
2022-10-21T18:38:37.754Z,100560.75
2022-10-21T18:41:18.874Z,100545.88
2022-10-21T18:43:50.737Z,100560.44
2022-10-21T18:46:17.929Z,100574.56
2022-10-21T18:48:44.655Z,100552.84
2022-10-21T18:51:12.661Z,100547.81
2022-10-21T18:53:39.741Z,100544.56
2022-10-21T18:56:08.127Z,100554.13
2022-10-21T18:58:35.166Z,100540.13
2022-10-21T19:01:03.667Z,100537.50
2022-10-21T19:03:30.631Z,100529.28
2022-10-21T19:05:57.283Z,100544.38
2022-10-21T19:08:24.024Z,100523.28
2022-10-21T19:10:50.690Z,100541.06
2022-10-21T19:13:17.362Z,100511.28
2022-10-21T19:15:44.057Z,100556.16
2022-10-21T19:18:12.767Z,100507.66
2022-10-21T19:20:39.475Z,100539.53
2022-10-21T19:23:06.141Z,100517.81
2022-10-21T19:25:32.811Z,100522.72
2022-10-21T19:27:59.485Z,100560.78
2022-10-21T19:30:26.209Z,100562.56
2022-10-21T19:32:52.855Z,100565.91
2022-10-21T19:35:20.905Z,100559.81
2022-10-21T19:37:47.531Z,100537.06
2022-10-21T19:40:14.411Z,100543.78
2022-10-21T19:42:41.373Z,100556.44
2022-10-21T19:45:09.698Z,100560.66
2022-10-21T19:47:36.431Z,100570.34
2022-10-21T19:50:03.220Z,100559.41
2022-10-21T19:52:31.263Z,100561.91
2022-10-21T19:54:57.936Z,100569.47
2022-10-21T19:57:25.913Z,100577.28
2022-10-21T19:59:52.587Z,100570.09
2022-10-21T20:02:19.197Z,100557.16
2022-10-21T20:04:46.166Z,100574.19
2022-10-21T20:07:13.518Z,100557.53
2022-10-21T20:09:41.802Z,100557.53
2022-10-21T20:12:09.041Z,100520.53
2022-10-21T20:14:35.762Z,100528.09
2022-10-21T20:17:02.520Z,100557.31
2022-10-21T20:19:29.177Z,100533.44
2022-10-21T20:21:55.977Z,100566.50
2022-10-21T20:24:24.224Z,100544.16
2022-10-21T20:26:52.769Z,100551.34
2022-10-21T20:29:19.653Z,100552.25
2022-10-21T20:31:46.371Z,100490.78
2022-10-21T20:34:13.242Z,100558.97
2022-10-21T20:36:40.340Z,100551.28
2022-10-21T20:39:07.073Z,100555.69
2022-10-21T20:41:35.269Z,100563.25
2022-10-21T20:44:05.398Z,100559.88
2022-10-21T20:46:32.765Z,100558.88
2022-10-21T20:48:59.586Z,100527.38
2022-10-21T20:51:27.945Z,100565.25
2022-10-21T20:53:56.158Z,100552.97
2022-10-21T20:56:26.013Z,100560.44
2022-10-21T20:58:52.685Z,100538.59
2022-10-21T21:01:22.991Z,100540.69
2022-10-21T21:03:50.887Z,100548.13
2022-10-21T21:06:18.557Z,100562.41
2022-10-21T21:08:53.376Z,100568.00
2022-10-21T21:11:32.042Z,100584.97
2022-10-21T21:13:58.918Z,100559.34
2022-10-21T21:16:27.326Z,100575.59
2022-10-21T21:18:56.147Z,100592.38
2022-10-21T21:21:24.467Z,100546.31
2022-10-21T21:23:51.663Z,100598.91
2022-10-21T21:26:20.700Z,100621.44
2022-10-21T21:28:49.188Z,100597.56
2022-10-21T21:31:16.122Z,100616.72
2022-10-21T21:33:44.433Z,100596.94
2022-10-21T21:36:11.711Z,100597.25
2022-10-21T21:38:38.734Z,100614.53
2022-10-21T21:41:08.186Z,100615.81
2022-10-21T21:43:37.665Z,100598.69
2022-10-21T21:46:04.598Z,100595.94
2022-10-21T21:48:32.049Z,100618.28
2022-10-21T21:51:05.285Z,100608.38
2022-10-21T21:53:31.961Z,100562.66
2022-10-21T21:56:03.143Z,100573.59
2022-10-21T21:58:30.770Z,100571.72
2022-10-21T22:00:57.447Z,100590.09
2022-10-21T22:03:24.110Z,100560.94
2022-10-21T22:05:50.704Z,100599.13
2022-10-21T22:08:18.710Z,100574.63
2022-10-21T22:10:45.338Z,100602.34
2022-10-21T22:13:11.987Z,100595.16
2022-10-21T22:15:53.878Z,100587.59
2022-10-21T22:18:20.573Z,100603.69
2022-10-21T22:20:47.200Z,100606.88
2022-10-21T22:23:13.767Z,100566.59
2022-10-21T22:25:41.939Z,100609.28
2022-10-21T22:28:08.578Z,100554.88
2022-10-21T22:30:35.151Z,100597.25
2022-10-21T22:33:01.946Z,100562.78
2022-10-21T22:35:28.628Z,100561.88
2022-10-21T22:37:55.263Z,100566.13
2022-10-21T22:40:21.956Z,100589.25
2022-10-21T22:42:49.988Z,100567.25
2022-10-21T22:45:16.779Z,100560.19
2022-10-21T22:47:43.588Z,100557.91
2022-10-21T22:50:10.254Z,100576.38
2022-10-21T22:52:36.997Z,100602.59
2022-10-21T22:55:04.618Z,100595.06
2022-10-21T22:57:31.200Z,100553.28
2022-10-21T22:59:59.228Z,100561.75
2022-10-21T23:02:25.900Z,100561.22
2022-10-21T23:04:52.514Z,100583.56
2022-10-21T23:07:19.107Z,100572.44
2022-10-21T23:09:45.707Z,100554.81
2022-10-21T23:12:12.325Z,100552.06
2022-10-21T23:14:38.991Z,100544.41
2022-10-21T23:17:07.080Z,100547.63
2022-10-21T23:19:33.723Z,100564.03
2022-10-21T23:22:00.349Z,100531.00
2022-10-21T23:24:27.194Z,100540.41
2022-10-21T23:26:57.607Z,100577.91
2022-10-21T23:29:27.194Z,100537.03
2022-10-21T23:31:53.796Z,100563.75
2022-10-21T23:34:21.791Z,100550.59
2022-10-21T23:36:48.469Z,100559.25
2022-10-21T23:39:15.196Z,100558.91
2022-10-21T23:41:41.772Z,100559.53
2022-10-21T23:44:08.487Z,100534.69
2022-10-21T23:46:35.096Z,100551.50
2022-10-21T23:49:01.756Z,100513.09
2022-10-21T23:51:30.000Z,100510.25
2022-10-21T23:53:56.640Z,100535.84
2022-10-21T23:56:23.236Z,100520.94
2022-10-21T23:58:50.046Z,100514.72
